Norwalk, CT (06855)

8:24 AM EST on December 10, 2016 (GMT -0500)
Bermuda Lagoon, Westport, CT | | Change Station

Elev 7 ft 41.10 °N, 73.38 °W | Updated 35 seconds ago

Clear
Clear
27.0 °F
Feels Like 27 °F
N
2.2
Wind Variable Wind from West

Today
High -- | Low -- °F
--% Chance of Precip.
Yesterday
High -- | Low -- °F
Precip. -- in
Pressure 30.38 in
Visibility 10.0 miles
Clouds Clear
Windchill 27 °F
Dew Point 19 °F
Humidity 71%
Rainfall 3.55 in
Snow Depth Not available.
7:08 AM 4:25 PM
Waxing Gibbous, 83% visible
METAR KBDR 101252Z 29006KT 10SM CLR M04/M10 A3037 RMK AO2 SLP285 T10391100 $
Pressure 30.38 in
Visibility 10.0 miles
Clouds Clear
Windchill 27 °F
Dew Point 19 °F
Humidity 71%
Rainfall 3.55 in
Snow Depth Not available.
7:08 AM 4:25 PM
Waxing Gibbous, 83% visible
METAR KBDR 101252Z 29006KT 10SM CLR M04/M10 A3037 RMK AO2 SLP285 T10391100 $

10-Day Weather Forecast

Almanac

Astronomy

Dec. 10, 2016 Rise Set
Actual Time
Civil Twilight
Nautical Twilight
Astronomical Twilight
Moon
Length of Visible Light
Length of Day
Tomorrow will be .
, % of the Moon is Illuminated

Today's Extremes

State Highs State Lows

Community

WunderPhotos

Upload Photos

1,956,540 photos uploaded!

WunderBlog® & News

Nearby

Air Quality

  Air Quality AQ Index Pollutant
Not available.

Snow Depth

Station Depth Elevation

Earthquake Activity

City Distance Mag. Time & Date
Minimum magnitude displayed is 2.5.

Coastal Water Temperatures

Place Temperature

Stations

Nearby Weather Stations

Station Location Temp. Windchill Dew Point Humidity Wind Precip. Elev Updated Type
                   

Watches & Warnings

There are currently no watches in effect.